METAR Data
IDs: Format: Raw Decoded Include TAF

Data at: 1522 UTC 27 Nov 2021

LIMC 271450Z 14004KT 9999 BKN030 08/06 Q0992 NOSIG